sensor_id;sensor_type;location;lat;lon;timestamp;pressure;altitude;pressure_sealevel;temperature;humidity
53550;BME280;73079;52.914;-0.982;2023-11-21T00:01:43;101249.72;;;9.44;100.00
53550;BME280;73079;52.914;-0.982;2023-11-21T00:04:08;101248.69;;;9.37;100.00
53550;BME280;73079;52.914;-0.982;2023-11-21T00:06:34;101253.38;;;9.35;100.00
53550;BME280;73079;52.914;-0.982;2023-11-21T00:09:00;101258.53;;;9.28;100.00
53550;BME280;73079;52.914;-0.982;2023-11-21T00:11:26;101264.78;;;9.37;100.00
53550;BME280;73079;52.914;-0.982;2023-11-21T00:13:51;101269.13;;;9.38;100.00
53550;BME280;73079;52.914;-0.982;2023-11-21T00:16:18;101279.84;;;9.38;100.00
53550;BME280;73079;52.914;-0.982;2023-11-21T00:18:44;101286.91;;;9.39;100.00
53550;BME280;73079;52.914;-0.982;2023-11-21T00:21:12;101284.06;;;9.48;100.00
53550;BME280;73079;52.914;-0.982;2023-11-21T00:23:38;101290.47;;;9.47;100.00
53550;BME280;73079;52.914;-0.982;2023-11-21T00:26:04;101288.25;;;9.35;100.00
53550;BME280;73079;52.914;-0.982;2023-11-21T00:28:30;101299.97;;;9.33;100.00
53550;BME280;73079;52.914;-0.982;2023-11-21T00:30:56;101297.63;;;9.39;100.00
53550;BME280;73079;52.914;-0.982;2023-11-21T00:33:23;101307.97;;;9.25;100.00
53550;BME280;73079;52.914;-0.982;2023-11-21T00:35:51;101310.72;;;9.42;100.00
53550;BME280;73079;52.914;-0.982;2023-11-21T00:38:16;101317.03;;;9.32;100.00
53550;BME280;73079;52.914;-0.982;2023-11-21T00:40:45;101317.38;;;9.29;100.00
53550;BME280;73079;52.914;-0.982;2023-11-21T00:43:11;101322.25;;;9.34;100.00
53550;BME280;73079;52.914;-0.982;2023-11-21T00:45:37;101329.00;;;9.46;100.00
53550;BME280;73079;52.914;-0.982;2023-11-21T00:48:03;101322.91;;;9.36;100.00
53550;BME280;73079;52.914;-0.982;2023-11-21T00:50:31;101324.09;;;9.33;100.00
53550;BME280;73079;52.914;-0.982;2023-11-21T00:52:57;101324.44;;;9.39;97.46
53550;BME280;73079;52.914;-0.982;2023-11-21T00:55:23;101323.41;;;9.31;100.00
53550;BME280;73079;52.914;-0.982;2023-11-21T00:57:51;101326.47;;;9.37;97.25
53550;BME280;73079;52.914;-0.982;2023-11-21T01:00:18;101329.31;;;9.35;99.76
53550;BME280;73079;52.914;-0.982;2023-11-21T01:02:44;101328.41;;;9.26;100.00
53550;BME280;73079;52.914;-0.982;2023-11-21T01:05:10;101330.59;;;9.23;100.00
53550;BME280;73079;52.914;-0.982;2023-11-21T01:07:37;101335.72;;;9.16;100.00
53550;BME280;73079;52.914;-0.982;2023-11-21T01:10:03;101342.88;;;9.33;98.51
53550;BME280;73079;52.914;-0.982;2023-11-21T01:12:34;101347.19;;;9.26;98.82
53550;BME280;73079;52.914;-0.982;2023-11-21T01:15:00;101350.03;;;9.25;95.97
53550;BME280;73079;52.914;-0.982;2023-11-21T01:17:26;101347.50;;;9.23;94.37
53550;BME280;73079;52.914;-0.982;2023-11-21T01:19:52;101349.56;;;9.29;93.55
53550;BME280;73079;52.914;-0.982;2023-11-21T01:22:18;101356.41;;;9.24;94.58
53550;BME280;73079;52.914;-0.982;2023-11-21T01:24:51;101358.56;;;9.20;93.53
53550;BME280;73079;52.914;-0.982;2023-11-21T01:27:17;101364.41;;;9.16;93.00
53550;BME280;73079;52.914;-0.982;2023-11-21T01:29:44;101368.13;;;9.23;92.35
53550;BME280;73079;52.914;-0.982;2023-11-21T01:32:10;101367.28;;;9.22;89.96
53550;BME280;73079;52.914;-0.982;2023-11-21T01:34:36;101367.34;;;9.04;94.81
53550;BME280;73079;52.914;-0.982;2023-11-21T01:37:02;101378.78;;;9.14;91.19
53550;BME280;73079;52.914;-0.982;2023-11-21T01:39:30;101380.09;;;9.10;92.55
53550;BME280;73079;52.914;-0.982;2023-11-21T01:41:58;101386.00;;;9.14;91.29
53550;BME280;73079;52.914;-0.982;2023-11-21T01:44:24;101384.63;;;9.10;89.00
53550;BME280;73079;52.914;-0.982;2023-11-21T01:46:51;101387.31;;;9.10;89.55
53550;BME280;73079;52.914;-0.982;2023-11-21T01:49:17;101392.16;;;9.06;88.62
53550;BME280;73079;52.914;-0.982;2023-11-21T01:51:44;101393.16;;;9.05;89.11
53550;BME280;73079;52.914;-0.982;2023-11-21T01:54:12;101408.63;;;8.93;92.26
53550;BME280;73079;52.914;-0.982;2023-11-21T01:56:38;101409.00;;;8.99;92.42
53550;BME280;73079;52.914;-0.982;2023-11-21T01:59:06;101414.84;;;8.94;90.61
53550;BME280;73079;52.914;-0.982;2023-11-21T02:01:32;101411.38;;;9.02;88.98
53550;BME280;73079;52.914;-0.982;2023-11-21T02:03:58;101425.94;;;8.99;88.85
53550;BME280;73079;52.914;-0.982;2023-11-21T02:06:24;101424.09;;;9.00;87.16
53550;BME280;73079;52.914;-0.982;2023-11-21T02:08:52;101431.31;;;8.99;86.35
53550;BME280;73079;52.914;-0.982;2023-11-21T02:11:18;101430.97;;;9.02;85.87
53550;BME280;73079;52.914;-0.982;2023-11-21T02:13:46;101436.97;;;8.96;84.30
53550;BME280;73079;52.914;-0.982;2023-11-21T02:16:14;101428.63;;;8.99;84.75
53550;BME280;73079;52.914;-0.982;2023-11-21T02:18:40;101439.66;;;8.96;85.17
53550;BME280;73079;52.914;-0.982;2023-11-21T02:21:07;101446.88;;;8.96;84.53
53550;BME280;73079;52.914;-0.982;2023-11-21T02:23:34;101450.16;;;8.89;84.97
53550;BME280;73079;52.914;-0.982;2023-11-21T02:26:00;101462.94;;;8.96;83.93
53550;BME280;73079;52.914;-0.982;2023-11-21T02:28:30;101466.91;;;8.91;82.76
53550;BME280;73079;52.914;-0.982;2023-11-21T02:30:55;101470.28;;;8.93;82.38
53550;BME280;73079;52.914;-0.982;2023-11-21T02:33:23;101463.25;;;8.92;82.13
53550;BME280;73079;52.914;-0.982;2023-11-21T02:36:14;101472.28;;;8.91;82.39
53550;BME280;73079;52.914;-0.982;2023-11-21T02:38:41;101469.91;;;8.88;81.24
53550;BME280;73079;52.914;-0.982;2023-11-21T02:41:06;101481.91;;;8.84;80.61
53550;BME280;73079;52.914;-0.982;2023-11-21T02:43:32;101476.78;;;8.91;79.34
53550;BME280;73079;52.914;-0.982;2023-11-21T02:45:58;101484.94;;;8.81;79.44
53550;BME280;73079;52.914;-0.982;2023-11-21T02:48:24;101487.06;;;8.78;80.74
53550;BME280;73079;52.914;-0.982;2023-11-21T02:50:51;101491.13;;;8.82;80.84
53550;BME280;73079;52.914;-0.982;2023-11-21T02:53:18;101486.75;;;8.81;80.04
53550;BME280;73079;52.914;-0.982;2023-11-21T02:55:45;101487.75;;;8.80;79.56
53550;BME280;73079;52.914;-0.982;2023-11-21T02:58:11;101494.34;;;8.85;78.75
53550;BME280;73079;52.914;-0.982;2023-11-21T03:00:37;101500.38;;;8.87;78.97
53550;BME280;73079;52.914;-0.982;2023-11-21T03:03:03;101501.69;;;8.83;78.08
53550;BME280;73079;52.914;-0.982;2023-11-21T03:05:30;101506.81;;;8.77;78.90
53550;BME280;73079;52.914;-0.982;2023-11-21T03:07:56;101505.34;;;8.82;79.09
53550;BME280;73079;52.914;-0.982;2023-11-21T03:10:24;101505.84;;;8.78;79.54
53550;BME280;73079;52.914;-0.982;2023-11-21T03:12:52;101515.84;;;8.75;80.00
53550;BME280;73079;52.914;-0.982;2023-11-21T03:15:19;101510.31;;;8.77;79.96
53550;BME280;73079;52.914;-0.982;2023-11-21T03:17:44;101511.00;;;8.79;79.36
53550;BME280;73079;52.914;-0.982;2023-11-21T03:20:11;101521.72;;;8.79;78.83
53550;BME280;73079;52.914;-0.982;2023-11-21T03:22:37;101517.00;;;8.73;79.79
53550;BME280;73079;52.914;-0.982;2023-11-21T03:25:05;101513.31;;;8.74;79.94
53550;BME280;73079;52.914;-0.982;2023-11-21T03:27:31;101520.06;;;8.78;79.75
53550;BME280;73079;52.914;-0.982;2023-11-21T03:29:58;101516.91;;;8.83;79.78
53550;BME280;73079;52.914;-0.982;2023-11-21T03:32:24;101526.56;;;8.75;79.91
53550;BME280;73079;52.914;-0.982;2023-11-21T03:34:54;101518.75;;;8.82;80.46
53550;BME280;73079;52.914;-0.982;2023-11-21T03:37:23;101510.84;;;8.63;80.71
53550;BME280;73079;52.914;-0.982;2023-11-21T03:39:50;101512.03;;;8.78;79.52
53550;BME280;73079;52.914;-0.982;2023-11-21T03:42:16;101520.06;;;8.78;79.59
53550;BME280;73079;52.914;-0.982;2023-11-21T03:44:42;101519.78;;;8.81;79.21
53550;BME280;73079;52.914;-0.982;2023-11-21T03:47:09;101514.72;;;8.78;79.46
53550;BME280;73079;52.914;-0.982;2023-11-21T03:49:35;101519.00;;;8.71;80.87
53550;BME280;73079;52.914;-0.982;2023-11-21T03:52:01;101533.59;;;8.77;79.42
53550;BME280;73079;52.914;-0.982;2023-11-21T03:54:30;101529.16;;;8.67;80.76
53550;BME280;73079;52.914;-0.982;2023-11-21T03:56:56;101529.16;;;8.67;81.03
53550;BME280;73079;52.914;-0.982;2023-11-21T03:59:22;101533.66;;;8.67;80.90
53550;BME280;73079;52.914;-0.982;2023-11-21T04:01:49;101534.44;;;8.77;80.70
53550;BME280;73079;52.914;-0.982;2023-11-21T04:04:16;101529.38;;;8.74;80.51
53550;BME280;73079;52.914;-0.982;2023-11-21T04:06:42;101530.97;;;8.67;81.70
53550;BME280;73079;52.914;-0.982;2023-11-21T04:09:08;101544.78;;;8.72;81.15
53550;BME280;73079;52.914;-0.982;2023-11-21T04:11:34;101547.16;;;8.75;81.11
53550;BME280;73079;52.914;-0.982;2023-11-21T04:14:00;101543.69;;;8.83;80.52
53550;BME280;73079;52.914;-0.982;2023-11-21T04:16:26;101545.44;;;8.74;80.98
53550;BME280;73079;52.914;-0.982;2023-11-21T04:18:52;101530.78;;;8.78;80.58
53550;BME280;73079;52.914;-0.982;2023-11-21T04:21:19;101542.88;;;8.82;81.48
53550;BME280;73079;52.914;-0.982;2023-11-21T04:23:44;101545.25;;;8.85;80.65
53550;BME280;73079;52.914;-0.982;2023-11-21T04:26:10;101554.28;;;8.84;81.12
53550;BME280;73079;52.914;-0.982;2023-11-21T04:28:36;101556.50;;;8.89;80.36
53550;BME280;73079;52.914;-0.982;2023-11-21T04:31:02;101564.31;;;8.82;80.24
53550;BME280;73079;52.914;-0.982;2023-11-21T04:33:27;101574.59;;;8.87;80.37
53550;BME280;73079;52.914;-0.982;2023-11-21T04:35:55;101571.66;;;8.80;81.15
53550;BME280;73079;52.914;-0.982;2023-11-21T04:38:22;101569.97;;;8.79;81.37
53550;BME280;73079;52.914;-0.982;2023-11-21T04:40:47;101580.28;;;8.74;81.84
53550;BME280;73079;52.914;-0.982;2023-11-21T04:43:13;101585.19;;;8.79;80.92
53550;BME280;73079;52.914;-0.982;2023-11-21T04:45:39;101587.75;;;8.80;80.81
53550;BME280;73079;52.914;-0.982;2023-11-21T04:48:07;101581.75;;;8.86;79.65
53550;BME280;73079;52.914;-0.982;2023-11-21T04:50:33;101587.59;;;8.82;80.46
53550;BME280;73079;52.914;-0.982;2023-11-21T04:52:59;101589.09;;;8.84;79.66
53550;BME280;73079;52.914;-0.982;2023-11-21T04:55:26;101582.97;;;8.74;81.15
53550;BME280;73079;52.914;-0.982;2023-11-21T04:57:53;101593.69;;;8.74;81.00
53550;BME280;73079;52.914;-0.982;2023-11-21T05:00:19;101597.78;;;8.78;81.27
53550;BME280;73079;52.914;-0.982;2023-11-21T05:02:46;101593.94;;;8.81;81.66
53550;BME280;73079;52.914;-0.982;2023-11-21T05:05:12;101605.50;;;8.81;81.93
53550;BME280;73079;52.914;-0.982;2023-11-21T05:07:40;101617.91;;;8.82;82.33
53550;BME280;73079;52.914;-0.982;2023-11-21T05:10:07;101614.28;;;8.73;83.56
53550;BME280;73079;52.914;-0.982;2023-11-21T05:12:38;101620.59;;;8.82;83.79
53550;BME280;73079;52.914;-0.982;2023-11-21T05:15:05;101624.75;;;8.67;86.26
53550;BME280;73079;52.914;-0.982;2023-11-21T05:17:36;101627.00;;;8.71;86.56
53550;BME280;73079;52.914;-0.982;2023-11-21T05:20:03;101634.34;;;8.69;88.46
53550;BME280;73079;52.914;-0.982;2023-11-21T05:22:29;101634.88;;;8.73;89.26
53550;BME280;73079;52.914;-0.982;2023-11-21T05:24:55;101629.13;;;8.68;93.17
53550;BME280;73079;52.914;-0.982;2023-11-21T05:27:21;101639.16;;;8.66;94.50
53550;BME280;73079;52.914;-0.982;2023-11-21T05:29:48;101639.69;;;8.69;96.59
53550;BME280;73079;52.914;-0.982;2023-11-21T05:32:14;101637.78;;;8.62;100.00
53550;BME280;73079;52.914;-0.982;2023-11-21T05:34:40;101634.38;;;8.60;100.00
53550;BME280;73079;52.914;-0.982;2023-11-21T05:37:07;101630.44;;;8.64;100.00
53550;BME280;73079;52.914;-0.982;2023-11-21T05:39:33;101636.22;;;8.59;100.00
53550;BME280;73079;52.914;-0.982;2023-11-21T05:41:59;101638.47;;;8.64;100.00
53550;BME280;73079;52.914;-0.982;2023-11-21T05:44:25;101644.00;;;8.52;100.00
53550;BME280;73079;52.914;-0.982;2023-11-21T05:46:52;101645.19;;;8.68;100.00
53550;BME280;73079;52.914;-0.982;2023-11-21T05:49:18;101642.72;;;8.56;100.00
53550;BME280;73079;52.914;-0.982;2023-11-21T05:51:47;101655.03;;;8.49;100.00
53550;BME280;73079;52.914;-0.982;2023-11-21T05:54:12;101652.78;;;8.45;100.00
53550;BME280;73079;52.914;-0.982;2023-11-21T05:56:38;101657.38;;;8.52;100.00
53550;BME280;73079;52.914;-0.982;2023-11-21T05:59:04;101664.56;;;8.62;100.00
53550;BME280;73079;52.914;-0.982;2023-11-21T06:01:30;101661.22;;;8.50;100.00
53550;BME280;73079;52.914;-0.982;2023-11-21T06:03:57;101678.41;;;8.47;100.00
53550;BME280;73079;52.914;-0.982;2023-11-21T06:06:23;101678.13;;;8.50;100.00
53550;BME280;73079;52.914;-0.982;2023-11-21T06:08:50;101683.47;;;8.50;100.00
53550;BME280;73079;52.914;-0.982;2023-11-21T06:11:16;101693.63;;;8.56;100.00
53550;BME280;73079;52.914;-0.982;2023-11-21T06:13:42;101699.00;;;8.37;100.00
53550;BME280;73079;52.914;-0.982;2023-11-21T06:16:08;101706.03;;;8.38;100.00
53550;BME280;73079;52.914;-0.982;2023-11-21T06:18:34;101710.00;;;8.34;100.00
53550;BME280;73079;52.914;-0.982;2023-11-21T06:21:02;101721.41;;;8.36;100.00
53550;BME280;73079;52.914;-0.982;2023-11-21T06:23:27;101721.81;;;8.51;100.00
53550;BME280;73079;52.914;-0.982;2023-11-21T06:25:53;101724.06;;;8.55;100.00
53550;BME280;73079;52.914;-0.982;2023-11-21T06:28:19;101728.59;;;8.45;100.00
53550;BME280;73079;52.914;-0.982;2023-11-21T06:30:45;101734.09;;;8.53;100.00
53550;BME280;73079;52.914;-0.982;2023-11-21T06:33:10;101728.03;;;8.51;100.00
53550;BME280;73079;52.914;-0.982;2023-11-21T06:35:36;101738.19;;;8.48;100.00
53550;BME280;73079;52.914;-0.982;2023-11-21T06:38:04;101734.09;;;8.53;100.00
53550;BME280;73079;52.914;-0.982;2023-11-21T06:40:29;101734.63;;;8.57;100.00
53550;BME280;73079;52.914;-0.982;2023-11-21T06:42:55;101742.69;;;8.47;100.00
53550;BME280;73079;52.914;-0.982;2023-11-21T06:45:21;101745.69;;;8.44;100.00
53550;BME280;73079;52.914;-0.982;2023-11-21T06:47:47;101745.69;;;8.44;100.00
53550;BME280;73079;52.914;-0.982;2023-11-21T06:50:13;101750.91;;;8.46;100.00
53550;BME280;73079;52.914;-0.982;2023-11-21T06:52:39;101755.38;;;8.45;100.00
53550;BME280;73079;52.914;-0.982;2023-11-21T06:55:07;101761.56;;;8.36;100.00
53550;BME280;73079;52.914;-0.982;2023-11-21T06:57:36;101758.47;;;8.41;100.00
53550;BME280;73079;52.914;-0.982;2023-11-21T07:00:03;101767.63;;;8.38;100.00
53550;BME280;73079;52.914;-0.982;2023-11-21T07:02:29;101772.72;;;8.41;100.00
53550;BME280;73079;52.914;-0.982;2023-11-21T07:04:55;101775.56;;;8.49;100.00
53550;BME280;73079;52.914;-0.982;2023-11-21T07:07:21;101781.06;;;8.48;100.00
53550;BME280;73079;52.914;-0.982;2023-11-21T07:09:47;101780.19;;;8.37;100.00
53550;BME280;73079;52.914;-0.982;2023-11-21T07:12:15;101792.03;;;8.35;100.00
53550;BME280;73079;52.914;-0.982;2023-11-21T07:14:41;101800.78;;;8.37;100.00
53550;BME280;73079;52.914;-0.982;2023-11-21T07:17:10;101792.44;;;8.40;100.00
53550;BME280;73079;52.914;-0.982;2023-11-21T07:19:37;101808.50;;;8.40;100.00
53550;BME280;73079;52.914;-0.982;2023-11-21T07:22:03;101809.78;;;8.36;100.00
53550;BME280;73079;52.914;-0.982;2023-11-21T07:24:31;101817.13;;;8.44;100.00
53550;BME280;73079;52.914;-0.982;2023-11-21T07:26:57;101814.31;;;8.45;100.00
53550;BME280;73079;52.914;-0.982;2023-11-21T07:29:24;101821.88;;;8.40;100.00
53550;BME280;73079;52.914;-0.982;2023-11-21T07:31:55;101840.94;;;8.47;100.00
53550;BME280;73079;52.914;-0.982;2023-11-21T07:34:21;101841.09;;;8.45;100.00
53550;BME280;73079;52.914;-0.982;2023-11-21T07:53:51;101890.69;;;8.30;100.00
53550;BME280;73079;52.914;-0.982;2023-11-21T07:56:17;101901.41;;;8.30;100.00
53550;BME280;73079;52.914;-0.982;2023-11-21T07:58:43;101899.44;;;8.32;100.00
53550;BME280;73079;52.914;-0.982;2023-11-21T08:01:10;101905.34;;;8.35;100.00
53550;BME280;73079;52.914;-0.982;2023-11-21T08:03:35;101909.88;;;8.35;100.00
53550;BME280;73079;52.914;-0.982;2023-11-21T08:06:01;101915.50;;;8.32;100.00
53550;BME280;73079;52.914;-0.982;2023-11-21T08:08:29;101915.63;;;8.30;100.00
53550;BME280;73079;52.914;-0.982;2023-11-21T08:10:56;101923.94;;;8.37;100.00
53550;BME280;73079;52.914;-0.982;2023-11-21T08:13:22;101927.59;;;8.36;100.00
53550;BME280;73079;52.914;-0.982;2023-11-21T08:15:48;101935.22;;;8.31;100.00
53550;BME280;73079;52.914;-0.982;2023-11-21T08:18:14;101946.63;;;8.33;100.00
53550;BME280;73079;52.914;-0.982;2023-11-21T08:20:40;101944.69;;;8.35;100.00
53550;BME280;73079;52.914;-0.982;2023-11-21T08:23:06;101952.41;;;8.38;100.00
53550;BME280;73079;52.914;-0.982;2023-11-21T08:25:31;101951.44;;;8.39;100.00
53550;BME280;73079;52.914;-0.982;2023-11-21T08:27:59;101954.66;;;8.33;100.00
53550;BME280;73079;52.914;-0.982;2023-11-21T08:30:25;101968.63;;;8.36;100.00
53550;BME280;73079;52.914;-0.982;2023-11-21T08:32:53;101967.19;;;8.32;100.00
53550;BME280;73079;52.914;-0.982;2023-11-21T08:35:19;101986.09;;;8.31;100.00
53550;BME280;73079;52.914;-0.982;2023-11-21T08:37:45;101995.81;;;8.32;100.00
53550;BME280;73079;52.914;-0.982;2023-11-21T08:40:11;102000.31;;;8.31;100.00
53550;BME280;73079;52.914;-0.982;2023-11-21T08:42:42;102010.63;;;8.36;100.00
53550;BME280;73079;52.914;-0.982;2023-11-21T08:45:09;102018.38;;;8.39;100.00
53550;BME280;73079;52.914;-0.982;2023-11-21T08:47:35;102021.47;;;8.34;100.00
53550;BME280;73079;52.914;-0.982;2023-11-21T08:50:02;102028.66;;;8.34;100.00
53550;BME280;73079;52.914;-0.982;2023-11-21T08:52:28;102025.53;;;8.29;100.00
53550;BME280;73079;52.914;-0.982;2023-11-21T08:54:54;102026.25;;;8.31;100.00
53550;BME280;73079;52.914;-0.982;2023-11-21T08:57:21;102024.84;;;8.27;100.00
53550;BME280;73079;52.914;-0.982;2023-11-21T08:59:47;102028.50;;;8.26;100.00
53550;BME280;73079;52.914;-0.982;2023-11-21T09:02:14;102036.53;;;8.26;100.00
53550;BME280;73079;52.914;-0.982;2023-11-21T09:04:40;102041.88;;;8.26;100.00
53550;BME280;73079;52.914;-0.982;2023-11-21T09:07:06;102041.16;;;8.24;100.00
53550;BME280;73079;52.914;-0.982;2023-11-21T09:09:32;102051.47;;;8.28;100.00
53550;BME280;73079;52.914;-0.982;2023-11-21T09:11:58;102049.66;;;8.29;100.00
53550;BME280;73079;52.914;-0.982;2023-11-21T09:14:26;102051.63;;;8.27;100.00
53550;BME280;73079;52.914;-0.982;2023-11-21T09:16:51;102050.34;;;8.31;100.00
53550;BME280;73079;52.914;-0.982;2023-11-21T09:19:18;102058.94;;;8.25;100.00
53550;BME280;73079;52.914;-0.982;2023-11-21T09:21:45;102066.28;;;8.23;100.00
53550;BME280;73079;52.914;-0.982;2023-11-21T09:24:11;102078.66;;;8.24;100.00
53550;BME280;73079;52.914;-0.982;2023-11-21T09:26:36;102087.69;;;8.23;100.00
53550;BME280;73079;52.914;-0.982;2023-11-21T09:29:03;102084.28;;;8.21;100.00
53550;BME280;73079;52.914;-0.982;2023-11-21T09:31:28;102098.09;;;8.26;100.00
53550;BME280;73079;52.914;-0.982;2023-11-21T09:33:54;102102.63;;;8.25;100.00
53550;BME280;73079;52.914;-0.982;2023-11-21T09:36:22;102103.47;;;8.26;100.00
53550;BME280;73079;52.914;-0.982;2023-11-21T09:38:53;102104.16;;;8.28;100.00
53550;BME280;73079;52.914;-0.982;2023-11-21T09:41:25;102112.19;;;8.28;100.00
53550;BME280;73079;52.914;-0.982;2023-11-21T09:43:57;102111.91;;;8.21;100.00
53550;BME280;73079;52.914;-0.982;2023-11-21T09:46:28;102117.56;;;8.28;100.00
53550;BME280;73079;52.914;-0.982;2023-11-21T09:48:57;102115.88;;;8.27;100.00
53550;BME280;73079;52.914;-0.982;2023-11-21T09:51:29;102122.66;;;8.31;100.00
53550;BME280;73079;52.914;-0.982;2023-11-21T09:53:59;102131.94;;;8.27;100.00
53550;BME280;73079;52.914;-0.982;2023-11-21T09:56:29;102131.94;;;8.27;100.00
53550;BME280;73079;52.914;-0.982;2023-11-21T09:58:55;102144.91;;;8.31;100.00
53550;BME280;73079;52.914;-0.982;2023-11-21T10:01:23;102148.91;;;8.37;100.00
53550;BME280;73079;52.914;-0.982;2023-11-21T10:03:51;102144.59;;;8.46;100.00
53550;BME280;73079;52.914;-0.982;2023-11-21T10:06:17;102147.91;;;8.38;100.00
53550;BME280;73079;52.914;-0.982;2023-11-21T10:08:45;102153.75;;;8.43;100.00
53550;BME280;73079;52.914;-0.982;2023-11-21T10:11:13;102156.06;;;8.57;100.00
53550;BME280;73079;52.914;-0.982;2023-11-21T10:13:40;102159.03;;;8.64;100.00
53550;BME280;73079;52.914;-0.982;2023-11-21T10:16:07;102165.25;;;8.65;100.00
53550;BME280;73079;52.914;-0.982;2023-11-21T10:18:38;102169.91;;;8.63;100.00
53550;BME280;73079;52.914;-0.982;2023-11-21T10:21:06;102173.28;;;8.65;100.00
53550;BME280;73079;52.914;-0.982;2023-11-21T10:23:32;102184.44;;;8.70;100.00
53550;BME280;73079;52.914;-0.982;2023-11-21T10:25:59;102198.25;;;8.65;100.00
53550;BME280;73079;52.914;-0.982;2023-11-21T10:28:26;102196.69;;;8.63;100.00
53550;BME280;73079;52.914;-0.982;2023-11-21T10:30:52;102191.31;;;8.63;100.00
53550;BME280;73079;52.914;-0.982;2023-11-21T10:33:27;102195.72;;;8.64;100.00
53550;BME280;73079;52.914;-0.982;2023-11-21T10:35:53;102196.94;;;8.60;100.00
53550;BME280;73079;52.914;-0.982;2023-11-21T10:38:20;102204.28;;;8.57;100.00
53550;BME280;73079;52.914;-0.982;2023-11-21T10:40:50;102214.66;;;8.51;100.00
53550;BME280;73079;52.914;-0.982;2023-11-21T10:43:18;102216.38;;;8.52;100.00
53550;BME280;73079;52.914;-0.982;2023-11-21T10:45:44;102215.88;;;8.58;100.00
53550;BME280;73079;52.914;-0.982;2023-11-21T10:48:12;102209.47;;;8.49;97.71
53550;BME280;73079;52.914;-0.982;2023-11-21T10:50:41;102218.59;;;8.47;98.70
53550;BME280;73079;52.914;-0.982;2023-11-21T10:53:07;102217.78;;;8.46;94.85
53550;BME280;73079;52.914;-0.982;2023-11-21T10:55:33;102236.09;;;8.51;97.99
53550;BME280;73079;52.914;-0.982;2023-11-21T10:58:02;102232.47;;;8.52;91.00
53550;BME280;73079;52.914;-0.982;2023-11-21T11:00:32;102235.97;;;8.52;92.27
53550;BME280;73079;52.914;-0.982;2023-11-21T11:02:58;102242.66;;;8.58;96.10
53550;BME280;73079;52.914;-0.982;2023-11-21T11:05:26;102241.47;;;8.51;87.07
53550;BME280;73079;52.914;-0.982;2023-11-21T11:07:57;102247.94;;;8.48;89.68
53550;BME280;73079;52.914;-0.982;2023-11-21T11:10:27;102244.00;;;8.52;90.37
53550;BME280;73079;52.914;-0.982;2023-11-21T11:12:55;102253.94;;;8.62;88.14
53550;BME280;73079;52.914;-0.982;2023-11-21T11:15:21;102253.41;;;8.68;86.90
53550;BME280;73079;52.914;-0.982;2023-11-21T11:17:49;102248.38;;;8.74;85.28
53550;BME280;73079;52.914;-0.982;2023-11-21T11:20:16;102250.03;;;8.75;83.66
53550;BME280;73079;52.914;-0.982;2023-11-21T11:22:50;102255.47;;;8.85;84.84
53550;BME280;73079;52.914;-0.982;2023-11-21T11:25:27;102264.41;;;8.96;85.96
53550;BME280;73079;52.914;-0.982;2023-11-21T11:28:04;102264.47;;;8.84;84.61
53550;BME280;73079;52.914;-0.982;2023-11-21T11:30:41;102273.88;;;9.09;87.90
53550;BME280;73079;52.914;-0.982;2023-11-21T11:36:02;102268.22;;;9.03;84.24
53550;BME280;73079;52.914;-0.982;2023-11-21T11:38:32;102270.47;;;8.98;84.46
53550;BME280;73079;52.914;-0.982;2023-11-21T11:41:02;102273.06;;;8.78;88.63
53550;BME280;73079;52.914;-0.982;2023-11-21T11:43:31;102287.63;;;8.85;87.70
53550;BME280;73079;52.914;-0.982;2023-11-21T11:46:10;102289.28;;;8.77;87.88
53550;BME280;73079;52.914;-0.982;2023-11-21T11:48:39;102299.06;;;8.87;87.34
53550;BME280;73079;52.914;-0.982;2023-11-21T11:51:06;102291.47;;;8.92;88.01
53550;BME280;73079;52.914;-0.982;2023-11-21T11:53:36;102291.34;;;8.94;84.76
53550;BME280;73079;52.914;-0.982;2023-11-21T11:56:22;102275.63;;;8.89;83.53
53550;BME280;73079;52.914;-0.982;2023-11-21T11:58:49;102295.41;;;8.88;84.47
53550;BME280;73079;52.914;-0.982;2023-11-21T12:01:16;102292.13;;;9.16;86.71
53550;BME280;73079;52.914;-0.982;2023-11-21T12:03:44;102297.28;;;8.98;83.42
53550;BME280;73079;52.914;-0.982;2023-11-21T12:06:10;102294.66;;;8.86;82.35
53550;BME280;73079;52.914;-0.982;2023-11-21T12:08:37;102303.16;;;8.91;82.83
53550;BME280;73079;52.914;-0.982;2023-11-21T12:11:03;102307.94;;;8.88;83.95
53550;BME280;73079;52.914;-0.982;2023-11-21T12:13:30;102304.53;;;8.86;84.94
53550;BME280;73079;52.914;-0.982;2023-11-21T12:15:56;102306.84;;;8.90;85.79
53550;BME280;73079;52.914;-0.982;2023-11-21T12:18:21;102302.88;;;8.85;84.24
53550;BME280;73079;52.914;-0.982;2023-11-21T12:20:49;102312.19;;;8.90;85.48
53550;BME280;73079;52.914;-0.982;2023-11-21T12:23:16;102312.66;;;8.96;85.46
53550;BME280;73079;52.914;-0.982;2023-11-21T12:25:42;102309.59;;;9.10;82.91
53550;BME280;73079;52.914;-0.982;2023-11-21T12:28:11;102310.56;;;9.09;83.18
53550;BME280;73079;52.914;-0.982;2023-11-21T12:30:39;102299.94;;;8.98;82.01
53550;BME280;73079;52.914;-0.982;2023-11-21T12:33:07;102291.59;;;8.91;81.86
53550;BME280;73079;52.914;-0.982;2023-11-21T12:35:36;102297.09;;;8.89;82.83
53550;BME280;73079;52.914;-0.982;2023-11-21T12:38:09;102291.66;;;9.01;82.86
53550;BME280;73079;52.914;-0.982;2023-11-21T12:40:35;102295.25;;;8.90;83.61
53550;BME280;73079;52.914;-0.982;2023-11-21T12:43:01;102298.59;;;8.82;84.79
53550;BME280;73079;52.914;-0.982;2023-11-21T12:45:29;102313.31;;;8.67;85.03
53550;BME280;73079;52.914;-0.982;2023-11-21T12:47:59;102318.06;;;8.53;86.41
53550;BME280;73079;52.914;-0.982;2023-11-21T12:50:26;102320.66;;;8.44;88.84
53550;BME280;73079;52.914;-0.982;2023-11-21T12:52:58;102327.72;;;8.45;93.66
53550;BME280;73079;52.914;-0.982;2023-11-21T12:55:30;102334.91;;;8.44;100.00
53550;BME280;73079;52.914;-0.982;2023-11-21T12:57:56;102337.72;;;8.31;99.64
53550;BME280;73079;52.914;-0.982;2023-11-21T13:00:33;102337.06;;;8.18;100.00
53550;BME280;73079;52.914;-0.982;2023-11-21T13:03:04;102327.19;;;8.18;100.00
53550;BME280;73079;52.914;-0.982;2023-11-21T13:05:32;102319.56;;;8.14;100.00